sensor_id;sensor_type;location;lat;lon;timestamp;temperature;humidity
73780;SHT30;62093;37.614;15.072;2023-07-31T00:01:55;27.29;53.92
73780;SHT30;62093;37.614;15.072;2023-07-31T00:04:52;27.26;54.07
73780;SHT30;62093;37.614;15.072;2023-07-31T00:07:33;27.27;54.17
73780;SHT30;62093;37.614;15.072;2023-07-31T00:10:04;27.24;54.06
73780;SHT30;62093;37.614;15.072;2023-07-31T00:12:35;27.27;54.18
73780;SHT30;62093;37.614;15.072;2023-07-31T00:15:21;27.26;54.10
73780;SHT30;62093;37.614;15.072;2023-07-31T00:17:52;27.26;53.84
73780;SHT30;62093;37.614;15.072;2023-07-31T00:20:25;27.22;54.02
73780;SHT30;62093;37.614;15.072;2023-07-31T00:22:55;27.22;54.06
73780;SHT30;62093;37.614;15.072;2023-07-31T00:25:29;27.22;54.17
73780;SHT30;62093;37.614;15.072;2023-07-31T00:27:58;27.22;54.21
73780;SHT30;62093;37.614;15.072;2023-07-31T00:30:34;27.19;53.85
73780;SHT30;62093;37.614;15.072;2023-07-31T00:33:03;27.17;53.91
73780;SHT30;62093;37.614;15.072;2023-07-31T00:35:32;27.14;53.86
73780;SHT30;62093;37.614;15.072;2023-07-31T00:38:06;27.13;53.96
73780;SHT30;62093;37.614;15.072;2023-07-31T00:40:38;27.16;54.10
73780;SHT30;62093;37.614;15.072;2023-07-31T00:43:08;27.13;54.22
73780;SHT30;62093;37.614;15.072;2023-07-31T00:45:37;27.13;54.02
73780;SHT30;62093;37.614;15.072;2023-07-31T00:48:08;27.11;54.20
73780;SHT30;62093;37.614;15.072;2023-07-31T00:50:37;27.10;54.32
73780;SHT30;62093;37.614;15.072;2023-07-31T00:53:06;27.09;54.24
73780;SHT30;62093;37.614;15.072;2023-07-31T00:55:34;27.10;54.19
73780;SHT30;62093;37.614;15.072;2023-07-31T00:58:03;27.06;54.22
73780;SHT30;62093;37.614;15.072;2023-07-31T01:00:31;27.07;54.28
73780;SHT30;62093;37.614;15.072;2023-07-31T01:02:58;27.06;54.13
73780;SHT30;62093;37.614;15.072;2023-07-31T01:05:39;27.06;54.27
73780;SHT30;62093;37.614;15.072;2023-07-31T01:08:42;27.03;54.03
73780;SHT30;62093;37.614;15.072;2023-07-31T01:11:27;27.03;54.10
73780;SHT30;62093;37.614;15.072;2023-07-31T01:13:55;27.04;54.32
73780;SHT30;62093;37.614;15.072;2023-07-31T01:16:21;27.03;54.26
73780;SHT30;62093;37.614;15.072;2023-07-31T01:18:46;27.00;54.35
73780;SHT30;62093;37.614;15.072;2023-07-31T01:26:45;27.00;54.18
73780;SHT30;62093;37.614;15.072;2023-07-31T01:29:24;26.98;54.41
73780;SHT30;62093;37.614;15.072;2023-07-31T01:31:57;26.96;54.33
73780;SHT30;62093;37.614;15.072;2023-07-31T01:34:29;26.96;54.34
73780;SHT30;62093;37.614;15.072;2023-07-31T01:37:01;26.96;54.44
73780;SHT30;62093;37.614;15.072;2023-07-31T01:39:26;26.96;54.39
73780;SHT30;62093;37.614;15.072;2023-07-31T01:42:05;26.95;54.20
73780;SHT30;62093;37.614;15.072;2023-07-31T01:44:43;26.95;54.46
73780;SHT30;62093;37.614;15.072;2023-07-31T01:47:14;26.92;54.47
73780;SHT30;62093;37.614;15.072;2023-07-31T01:49:57;26.90;54.51
73780;SHT30;62093;37.614;15.072;2023-07-31T01:52:23;26.90;54.35
73780;SHT30;62093;37.614;15.072;2023-07-31T01:55:01;26.92;54.47
73780;SHT30;62093;37.614;15.072;2023-07-31T01:57:41;26.89;54.04
73780;SHT30;62093;37.614;15.072;2023-07-31T02:00:20;26.88;54.52
73780;SHT30;62093;37.614;15.072;2023-07-31T02:03:02;26.89;54.30
73780;SHT30;62093;37.614;15.072;2023-07-31T02:05:35;26.88;54.14
73780;SHT30;62093;37.614;15.072;2023-07-31T02:08:06;26.89;54.48
73780;SHT30;62093;37.614;15.072;2023-07-31T02:10:43;26.88;54.57
73780;SHT30;62093;37.614;15.072;2023-07-31T02:13:21;26.86;54.48
73780;SHT30;62093;37.614;15.072;2023-07-31T02:15:54;26.86;54.26
73780;SHT30;62093;37.614;15.072;2023-07-31T02:21:15;26.86;54.27
73780;SHT30;62093;37.614;15.072;2023-07-31T02:23:49;26.88;54.22
73780;SHT30;62093;37.614;15.072;2023-07-31T02:26:18;26.86;54.19
73780;SHT30;62093;37.614;15.072;2023-07-31T02:28:55;26.85;54.49
73780;SHT30;62093;37.614;15.072;2023-07-31T02:31:25;26.85;54.27
73780;SHT30;62093;37.614;15.072;2023-07-31T02:33:56;26.82;54.28
73780;SHT30;62093;37.614;15.072;2023-07-31T02:36:25;26.83;54.19
73780;SHT30;62093;37.614;15.072;2023-07-31T02:38:58;26.82;54.24
73780;SHT30;62093;37.614;15.072;2023-07-31T02:41:28;26.83;54.35
73780;SHT30;62093;37.614;15.072;2023-07-31T02:44:01;26.82;54.49
73780;SHT30;62093;37.614;15.072;2023-07-31T02:46:29;26.80;54.45
73780;SHT30;62093;37.614;15.072;2023-07-31T02:48:55;26.80;54.26
73780;SHT30;62093;37.614;15.072;2023-07-31T02:51:25;26.79;54.33
73780;SHT30;62093;37.614;15.072;2023-07-31T02:53:51;26.80;54.26
73780;SHT30;62093;37.614;15.072;2023-07-31T02:56:17;26.79;54.20
73780;SHT30;62093;37.614;15.072;2023-07-31T02:58:50;26.79;54.59
73780;SHT30;62093;37.614;15.072;2023-07-31T03:01:19;26.79;54.07
73780;SHT30;62093;37.614;15.072;2023-07-31T03:03:51;26.75;54.35
73780;SHT30;62093;37.614;15.072;2023-07-31T03:06:24;26.76;54.17
73780;SHT30;62093;37.614;15.072;2023-07-31T03:09:05;26.76;54.40
73780;SHT30;62093;37.614;15.072;2023-07-31T03:11:37;26.76;54.15
73780;SHT30;62093;37.614;15.072;2023-07-31T03:14:08;26.75;54.35
73780;SHT30;62093;37.614;15.072;2023-07-31T03:16:37;26.75;54.16
73780;SHT30;62093;37.614;15.072;2023-07-31T03:19:09;26.75;54.43
73780;SHT30;62093;37.614;15.072;2023-07-31T03:21:35;26.71;54.43
73780;SHT30;62093;37.614;15.072;2023-07-31T03:24:04;26.73;54.42
73780;SHT30;62093;37.614;15.072;2023-07-31T03:26:32;26.71;54.31
73780;SHT30;62093;37.614;15.072;2023-07-31T03:29:11;26.71;54.14
73780;SHT30;62093;37.614;15.072;2023-07-31T03:31:52;26.69;54.10
73780;SHT30;62093;37.614;15.072;2023-07-31T03:34:21;26.71;54.11
73780;SHT30;62093;37.614;15.072;2023-07-31T03:36:50;26.67;54.61
73780;SHT30;62093;37.614;15.072;2023-07-31T03:39:16;26.69;54.56
73780;SHT30;62093;37.614;15.072;2023-07-31T03:41:41;26.68;54.52
73780;SHT30;62093;37.614;15.072;2023-07-31T03:44:11;26.67;54.57
73780;SHT30;62093;37.614;15.072;2023-07-31T03:46:40;26.68;54.69
73780;SHT30;62093;37.614;15.072;2023-07-31T03:49:06;26.65;54.40
73780;SHT30;62093;37.614;15.072;2023-07-31T03:51:33;26.68;54.37
73780;SHT30;62093;37.614;15.072;2023-07-31T03:54:06;26.67;54.37
73780;SHT30;62093;37.614;15.072;2023-07-31T03:56:38;26.65;54.50
73780;SHT30;62093;37.614;15.072;2023-07-31T03:59:06;26.67;54.50
73780;SHT30;62093;37.614;15.072;2023-07-31T04:01:38;26.67;54.40
73780;SHT30;62093;37.614;15.072;2023-07-31T04:04:04;26.67;54.29
73780;SHT30;62093;37.614;15.072;2023-07-31T04:06:36;26.67;54.53
73780;SHT30;62093;37.614;15.072;2023-07-31T04:09:05;26.63;54.57
73780;SHT30;62093;37.614;15.072;2023-07-31T04:11:30;26.68;54.58
73780;SHT30;62093;37.614;15.072;2023-07-31T04:14:03;26.65;54.48
73780;SHT30;62093;37.614;15.072;2023-07-31T04:16:34;26.65;54.42
73780;SHT30;62093;37.614;15.072;2023-07-31T04:19:00;26.63;54.55
73780;SHT30;62093;37.614;15.072;2023-07-31T04:21:31;26.67;54.31
73780;SHT30;62093;37.614;15.072;2023-07-31T04:23:57;26.62;54.37
73780;SHT30;62093;37.614;15.072;2023-07-31T04:26:31;26.65;54.51
73780;SHT30;62093;37.614;15.072;2023-07-31T04:29:03;26.63;54.40
73780;SHT30;62093;37.614;15.072;2023-07-31T04:31:29;26.63;54.58
73780;SHT30;62093;37.614;15.072;2023-07-31T04:33:58;26.63;54.53
73780;SHT30;62093;37.614;15.072;2023-07-31T04:36:29;26.62;54.45
73780;SHT30;62093;37.614;15.072;2023-07-31T04:38:57;26.62;54.18
73780;SHT30;62093;37.614;15.072;2023-07-31T04:41:34;26.63;54.47
73780;SHT30;62093;37.614;15.072;2023-07-31T04:44:06;26.63;54.36
73780;SHT30;62093;37.614;15.072;2023-07-31T04:46:32;26.63;54.58
73780;SHT30;62093;37.614;15.072;2023-07-31T04:48:57;26.59;54.72
73780;SHT30;62093;37.614;15.072;2023-07-31T04:51:23;26.59;54.48
73780;SHT30;62093;37.614;15.072;2023-07-31T04:53:57;26.60;54.67
73780;SHT30;62093;37.614;15.072;2023-07-31T04:56:28;26.60;54.74
73780;SHT30;62093;37.614;15.072;2023-07-31T04:58:56;26.62;54.82
73780;SHT30;62093;37.614;15.072;2023-07-31T05:01:22;26.60;54.48
73780;SHT30;62093;37.614;15.072;2023-07-31T05:03:53;26.60;54.65
73780;SHT30;62093;37.614;15.072;2023-07-31T05:06:19;26.62;54.74
73780;SHT30;62093;37.614;15.072;2023-07-31T05:08:51;26.59;54.70
73780;SHT30;62093;37.614;15.072;2023-07-31T05:11:20;26.60;54.91
73780;SHT30;62093;37.614;15.072;2023-07-31T05:13:48;26.60;54.68
73780;SHT30;62093;37.614;15.072;2023-07-31T05:16:16;26.59;54.86
73780;SHT30;62093;37.614;15.072;2023-07-31T05:18:43;26.60;54.75
73780;SHT30;62093;37.614;15.072;2023-07-31T05:21:11;26.60;54.80
73780;SHT30;62093;37.614;15.072;2023-07-31T05:23:37;26.63;54.93
73780;SHT30;62093;37.614;15.072;2023-07-31T05:26:12;26.63;54.91
73780;SHT30;62093;37.614;15.072;2023-07-31T05:28:38;26.65;54.87
73780;SHT30;62093;37.614;15.072;2023-07-31T05:31:07;26.63;54.97
73780;SHT30;62093;37.614;15.072;2023-07-31T05:33:35;26.65;54.80
73780;SHT30;62093;37.614;15.072;2023-07-31T05:36:04;26.65;54.88
73780;SHT30;62093;37.614;15.072;2023-07-31T05:38:36;26.65;54.91
73780;SHT30;62093;37.614;15.072;2023-07-31T05:41:02;26.68;54.72
73780;SHT30;62093;37.614;15.072;2023-07-31T05:43:39;26.69;54.78
73780;SHT30;62093;37.614;15.072;2023-07-31T05:46:10;26.65;54.68
73780;SHT30;62093;37.614;15.072;2023-07-31T05:48:41;26.67;54.87
73780;SHT30;62093;37.614;15.072;2023-07-31T05:51:15;26.68;54.85
73780;SHT30;62093;37.614;15.072;2023-07-31T05:53:45;26.68;54.76
73780;SHT30;62093;37.614;15.072;2023-07-31T05:56:19;26.69;54.74
73780;SHT30;62093;37.614;15.072;2023-07-31T05:58:45;26.71;54.73
73780;SHT30;62093;37.614;15.072;2023-07-31T06:01:15;26.68;54.99
73780;SHT30;62093;37.614;15.072;2023-07-31T06:04:09;26.71;54.72
73780;SHT30;62093;37.614;15.072;2023-07-31T06:06:37;26.71;54.54
73780;SHT30;62093;37.614;15.072;2023-07-31T06:09:03;26.73;54.76
73780;SHT30;62093;37.614;15.072;2023-07-31T06:11:29;26.72;54.74
73780;SHT30;62093;37.614;15.072;2023-07-31T06:13:55;26.75;54.69
73780;SHT30;62093;37.614;15.072;2023-07-31T06:16:20;26.75;54.67
73780;SHT30;62093;37.614;15.072;2023-07-31T06:18:47;26.75;54.54
73780;SHT30;62093;37.614;15.072;2023-07-31T06:21:15;26.75;54.74
73780;SHT30;62093;37.614;15.072;2023-07-31T06:23:41;26.76;54.43
73780;SHT30;62093;37.614;15.072;2023-07-31T06:26:08;26.76;54.66
73780;SHT30;62093;37.614;15.072;2023-07-31T06:28:34;26.79;54.84
73780;SHT30;62093;37.614;15.072;2023-07-31T06:31:03;26.79;54.82
73780;SHT30;62093;37.614;15.072;2023-07-31T06:33:41;26.80;54.79
73780;SHT30;62093;37.614;15.072;2023-07-31T06:36:10;26.83;54.76
73780;SHT30;62093;37.614;15.072;2023-07-31T06:38:37;26.83;54.77
73780;SHT30;62093;37.614;15.072;2023-07-31T06:41:10;26.83;54.76
73780;SHT30;62093;37.614;15.072;2023-07-31T06:43:38;26.85;54.82
73780;SHT30;62093;37.614;15.072;2023-07-31T06:46:10;26.86;54.87
73780;SHT30;62093;37.614;15.072;2023-07-31T06:48:36;26.86;54.84
73780;SHT30;62093;37.614;15.072;2023-07-31T06:51:10;26.88;54.85
73780;SHT30;62093;37.614;15.072;2023-07-31T06:53:38;26.88;54.86
73780;SHT30;62093;37.614;15.072;2023-07-31T06:56:04;26.88;54.79
73780;SHT30;62093;37.614;15.072;2023-07-31T06:58:32;26.89;54.83
73780;SHT30;62093;37.614;15.072;2023-07-31T07:01:02;26.89;54.81
73780;SHT30;62093;37.614;15.072;2023-07-31T07:03:31;26.92;54.82
73780;SHT30;62093;37.614;15.072;2023-07-31T07:05:59;26.89;54.83
73780;SHT30;62093;37.614;15.072;2023-07-31T07:08:26;26.92;54.87
73780;SHT30;62093;37.614;15.072;2023-07-31T07:10:55;26.90;54.80
73780;SHT30;62093;37.614;15.072;2023-07-31T07:13:26;26.89;54.94
73780;SHT30;62093;37.614;15.072;2023-07-31T07:15:58;26.89;54.79
73780;SHT30;62093;37.614;15.072;2023-07-31T07:18:26;26.92;54.85
73780;SHT30;62093;37.614;15.072;2023-07-31T07:20:53;26.92;54.81
73780;SHT30;62093;37.614;15.072;2023-07-31T07:23:20;26.92;54.91
73780;SHT30;62093;37.614;15.072;2023-07-31T07:25:51;26.95;54.93
73780;SHT30;62093;37.614;15.072;2023-07-31T07:28:17;26.93;54.93
73780;SHT30;62093;37.614;15.072;2023-07-31T07:30:54;26.95;55.00
73780;SHT30;62093;37.614;15.072;2023-07-31T07:33:24;26.95;54.96
73780;SHT30;62093;37.614;15.072;2023-07-31T07:35:54;26.96;54.79
73780;SHT30;62093;37.614;15.072;2023-07-31T07:38:20;26.98;54.88
73780;SHT30;62093;37.614;15.072;2023-07-31T07:40:50;26.98;54.87
73780;SHT30;62093;37.614;15.072;2023-07-31T07:43:21;26.96;54.83
73780;SHT30;62093;37.614;15.072;2023-07-31T07:45:53;26.96;54.80
73780;SHT30;62093;37.614;15.072;2023-07-31T07:48:19;26.96;54.80
73780;SHT30;62093;37.614;15.072;2023-07-31T07:50:46;26.96;54.79
73780;SHT30;62093;37.614;15.072;2023-07-31T07:53:19;26.98;54.80
73780;SHT30;62093;37.614;15.072;2023-07-31T07:55:50;26.98;54.80
73780;SHT30;62093;37.614;15.072;2023-07-31T07:58:26;26.98;54.77
73780;SHT30;62093;37.614;15.072;2023-07-31T08:01:18;26.98;54.75
73780;SHT30;62093;37.614;15.072;2023-07-31T08:03:47;26.98;54.78
73780;SHT30;62093;37.614;15.072;2023-07-31T08:06:34;26.99;54.77
73780;SHT30;62093;37.614;15.072;2023-07-31T08:09:18;26.99;54.75
73780;SHT30;62093;37.614;15.072;2023-07-31T08:11:55;27.00;54.75
73780;SHT30;62093;37.614;15.072;2023-07-31T08:14:30;27.02;54.79
73780;SHT30;62093;37.614;15.072;2023-07-31T08:16:56;26.98;54.73
73780;SHT30;62093;37.614;15.072;2023-07-31T08:19:40;27.02;54.73
73780;SHT30;62093;37.614;15.072;2023-07-31T08:22:17;27.02;54.69
73780;SHT30;62093;37.614;15.072;2023-07-31T08:24:46;27.00;54.76
73780;SHT30;62093;37.614;15.072;2023-07-31T08:27:17;27.02;54.72
73780;SHT30;62093;37.614;15.072;2023-07-31T08:29:43;27.02;54.70
73780;SHT30;62093;37.614;15.072;2023-07-31T08:32:09;27.03;54.72
73780;SHT30;62093;37.614;15.072;2023-07-31T08:34:49;27.06;54.69
73780;SHT30;62093;37.614;15.072;2023-07-31T08:37:21;27.03;54.69
73780;SHT30;62093;37.614;15.072;2023-07-31T08:39:52;27.03;54.67
73780;SHT30;62093;37.614;15.072;2023-07-31T08:42:20;27.06;54.64
73780;SHT30;62093;37.614;15.072;2023-07-31T08:44:47;27.04;54.68
73780;SHT30;62093;37.614;15.072;2023-07-31T08:47:14;27.04;54.68
73780;SHT30;62093;37.614;15.072;2023-07-31T08:49:42;27.09;54.63
73780;SHT30;62093;37.614;15.072;2023-07-31T08:52:10;27.06;54.67
73780;SHT30;62093;37.614;15.072;2023-07-31T08:54:40;27.07;54.64
73780;SHT30;62093;37.614;15.072;2023-07-31T08:57:07;27.07;54.65
73780;SHT30;62093;37.614;15.072;2023-07-31T08:59:35;27.07;54.65
73780;SHT30;62093;37.614;15.072;2023-07-31T09:02:06;27.07;54.65
73780;SHT30;62093;37.614;15.072;2023-07-31T09:04:33;27.09;54.58
73780;SHT30;62093;37.614;15.072;2023-07-31T09:07:01;27.09;54.59
73780;SHT30;62093;37.614;15.072;2023-07-31T09:09:39;27.10;54.60
73780;SHT30;62093;37.614;15.072;2023-07-31T09:12:10;27.13;54.57
73780;SHT30;62093;37.614;15.072;2023-07-31T09:14:46;27.11;54.61
73780;SHT30;62093;37.614;15.072;2023-07-31T09:17:15;27.13;54.58
73780;SHT30;62093;37.614;15.072;2023-07-31T09:19:43;27.13;54.54
73780;SHT30;62093;37.614;15.072;2023-07-31T09:22:09;27.16;54.53
73780;SHT30;62093;37.614;15.072;2023-07-31T09:24:40;27.13;54.52
73780;SHT30;62093;37.614;15.072;2023-07-31T09:27:17;27.13;54.52
73780;SHT30;62093;37.614;15.072;2023-07-31T09:29:43;27.14;54.48
73780;SHT30;62093;37.614;15.072;2023-07-31T09:32:16;27.13;54.52
73780;SHT30;62093;37.614;15.072;2023-07-31T09:34:42;27.14;54.47
73780;SHT30;62093;37.614;15.072;2023-07-31T09:37:11;27.16;54.46
73780;SHT30;62093;37.614;15.072;2023-07-31T09:39:48;27.16;54.44
73780;SHT30;62093;37.614;15.072;2023-07-31T09:42:36;27.19;54.44
73780;SHT30;62093;37.614;15.072;2023-07-31T09:45:08;27.16;54.44
73780;SHT30;62093;37.614;15.072;2023-07-31T09:47:46;27.16;54.45
73780;SHT30;62093;37.614;15.072;2023-07-31T09:50:24;27.19;54.40
73780;SHT30;62093;37.614;15.072;2023-07-31T09:52:58;27.19;54.44
73780;SHT30;62093;37.614;15.072;2023-07-31T09:55:26;27.19;54.42
73780;SHT30;62093;37.614;15.072;2023-07-31T09:57:56;27.22;54.36
73780;SHT30;62093;37.614;15.072;2023-07-31T10:00:25;27.20;54.33
73780;SHT30;62093;37.614;15.072;2023-07-31T10:02:59;27.22;54.32
73780;SHT30;62093;37.614;15.072;2023-07-31T10:05:45;27.24;54.33
73780;SHT30;62093;37.614;15.072;2023-07-31T10:08:15;27.23;54.31
73780;SHT30;62093;37.614;15.072;2023-07-31T10:10:47;27.23;54.27
73780;SHT30;62093;37.614;15.072;2023-07-31T10:13:16;27.24;54.24
73780;SHT30;62093;37.614;15.072;2023-07-31T10:15:45;27.26;54.26
73780;SHT30;62093;37.614;15.072;2023-07-31T10:18:12;27.24;54.24
73780;SHT30;62093;37.614;15.072;2023-07-31T10:20:38;27.27;54.19
73780;SHT30;62093;37.614;15.072;2023-07-31T10:23:06;27.26;54.17
73780;SHT30;62093;37.614;15.072;2023-07-31T10:25:35;27.26;54.16
73780;SHT30;62093;37.614;15.072;2023-07-31T10:28:01;27.26;54.17
73780;SHT30;62093;37.614;15.072;2023-07-31T10:30:32;27.27;54.15
73780;SHT30;62093;37.614;15.072;2023-07-31T10:33:05;27.30;54.11
73780;SHT30;62093;37.614;15.072;2023-07-31T10:35:33;27.26;54.14
73780;SHT30;62093;37.614;15.072;2023-07-31T10:38:13;27.30;54.14
73780;SHT30;62093;37.614;15.072;2023-07-31T10:40:41;27.30;54.11
73780;SHT30;62093;37.614;15.072;2023-07-31T10:43:24;27.31;54.11
73780;SHT30;62093;37.614;15.072;2023-07-31T10:45:57;27.34;54.07
73780;SHT30;62093;37.614;15.072;2023-07-31T10:48:33;27.31;54.05
73780;SHT30;62093;37.614;15.072;2023-07-31T10:51:11;27.34;54.01
73780;SHT30;62093;37.614;15.072;2023-07-31T10:53:46;27.34;53.97
73780;SHT30;62093;37.614;15.072;2023-07-31T10:56:20;27.34;53.99
73780;SHT30;62093;37.614;15.072;2023-07-31T10:59:01;27.36;54.00
73780;SHT30;62093;37.614;15.072;2023-07-31T11:01:51;27.37;53.97
73780;SHT30;62093;37.614;15.072;2023-07-31T11:04:26;27.36;53.97
73780;SHT30;62093;37.614;15.072;2023-07-31T11:06:59;27.39;53.93
73780;SHT30;62093;37.614;15.072;2023-07-31T11:09:32;27.39;53.93
73780;SHT30;62093;37.614;15.072;2023-07-31T11:12:03;27.37;53.90
73780;SHT30;62093;37.614;15.072;2023-07-31T11:14:29;27.40;53.92
73780;SHT30;62093;37.614;15.072;2023-07-31T11:16:58;27.40;53.91
73780;SHT30;62093;37.614;15.072;2023-07-31T11:19:25;27.43;53.88
73780;SHT30;62093;37.614;15.072;2023-07-31T11:21:56;27.40;53.85
73780;SHT30;62093;37.614;15.072;2023-07-31T11:24:22;27.41;53.87
73780;SHT30;62093;37.614;15.072;2023-07-31T11:26:51;27.44;53.85
73780;SHT30;62093;37.614;15.072;2023-07-31T11:29:29;27.43;53.84
73780;SHT30;62093;37.614;15.072;2023-07-31T11:32:01;27.44;53.82
73780;SHT30;62093;37.614;15.072;2023-07-31T11:34:51;27.46;53.80
73780;SHT30;62093;37.614;15.072;2023-07-31T11:37:23;27.47;53.80
73780;SHT30;62093;37.614;15.072;2023-07-31T11:40:00;27.46;53.80
73780;SHT30;62093;37.614;15.072;2023-07-31T11:42:26;27.47;53.77
73780;SHT30;62093;37.614;15.072;2023-07-31T11:44:55;27.47;53.76
73780;SHT30;62093;37.614;15.072;2023-07-31T11:47:21;27.50;53.69
73780;SHT30;62093;37.614;15.072;2023-07-31T11:49:51;27.47;53.70
73780;SHT30;62093;37.614;15.072;2023-07-31T11:52:23;27.48;53.72
73780;SHT30;62093;37.614;15.072;2023-07-31T11:54:49;27.51;53.69
73780;SHT30;62093;37.614;15.072;2023-07-31T11:57:25;27.51;53.67
73780;SHT30;62093;37.614;15.072;2023-07-31T11:59:55;27.51;53.63
73780;SHT30;62093;37.614;15.072;2023-07-31T12:02:24;27.50;53.60
73780;SHT30;62093;37.614;15.072;2023-07-31T12:04:52;27.54;53.63
73780;SHT30;62093;37.614;15.072;2023-07-31T12:07:26;27.54;53.63
73780;SHT30;62093;37.614;15.072;2023-07-31T12:09:53;27.53;53.62
73780;SHT30;62093;37.614;15.072;2023-07-31T12:12:29;27.54;53.57
73780;SHT30;62093;37.614;15.072;2023-07-31T12:14:58;27.57;53.55
73780;SHT30;62093;37.614;15.072;2023-07-31T12:17:29;27.54;53.55
73780;SHT30;62093;37.614;15.072;2023-07-31T12:19:56;27.57;53.57
73780;SHT30;62093;37.614;15.072;2023-07-31T12:22:26;27.55;53.52
73780;SHT30;62093;37.614;15.072;2023-07-31T12:24:54;27.60;53.55
73780;SHT30;62093;37.614;15.072;2023-07-31T12:27:35;27.58;53.54
73780;SHT30;62093;37.614;15.072;2023-07-31T12:30:04;27.60;53.51
73780;SHT30;62093;37.614;15.072;2023-07-31T12:32:33;27.60;53.48
73780;SHT30;62093;37.614;15.072;2023-07-31T12:35:06;27.62;53.44
73780;SHT30;62093;37.614;15.072;2023-07-31T12:37:33;27.62;53.43
73780;SHT30;62093;37.614;15.072;2023-07-31T12:40:04;27.65;53.39
73780;SHT30;62093;37.614;15.072;2023-07-31T12:42:31;27.62;53.42
73780;SHT30;62093;37.614;15.072;2023-07-31T12:44:59;27.62;53.40
73780;SHT30;62093;37.614;15.072;2023-07-31T12:47:34;27.65;53.35
73780;SHT30;62093;37.614;15.072;2023-07-31T12:50:03;27.62;53.39
73780;SHT30;62093;37.614;15.072;2023-07-31T12:52:43;27.64;53.38
73780;SHT30;62093;37.614;15.072;2023-07-31T12:55:11;27.65;53.34
73780;SHT30;62093;37.614;15.072;2023-07-31T12:57:44;27.67;53.32
73780;SHT30;62093;37.614;15.072;2023-07-31T13:00:17;27.67;53.32
73780;SHT30;62093;37.614;15.072;2023-07-31T13:02:43;27.68;53.32
73780;SHT30;62093;37.614;15.072;2023-07-31T13:05:15;27.70;53.30
73780;SHT30;62093;37.614;15.072;2023-07-31T13:07:41;27.67;53.32
73780;SHT30;62093;37.614;15.072;2023-07-31T13:10:17;27.70;53.30
73780;SHT30;62093;37.614;15.072;2023-07-31T13:12:52;27.70;53.27
73780;SHT30;62093;37.614;15.072;2023-07-31T13:15:24;27.71;53.28
73780;SHT30;62093;37.614;15.072;2023-07-31T13:17:50;27.72;53.22
73780;SHT30;62093;37.614;15.072;2023-07-31T13:20:18;27.70;53.26
73780;SHT30;62093;37.614;15.072;2023-07-31T13:22:47;27.72;53.21
73780;SHT30;62093;37.614;15.072;2023-07-31T13:25:17;27.74;53.21
73780;SHT30;62093;37.614;15.072;2023-07-31T13:27:43;27.74;53.19
73780;SHT30;62093;37.614;15.072;2023-07-31T13:30:13;27.76;53.21
73780;SHT30;62093;37.614;15.072;2023-07-31T13:32:42;27.77;53.21
73780;SHT30;62093;37.614;15.072;2023-07-31T13:35:16;27.76;53.18
73780;SHT30;62093;37.614;15.072;2023-07-31T13:37:53;27.77;53.17
73780;SHT30;62093;37.614;15.072;2023-07-31T13:40:25;27.74;53.14
73780;SHT30;62093;37.614;15.072;2023-07-31T13:42:53;27.76;53.13
73780;SHT30;62093;37.614;15.072;2023-07-31T13:45:33;27.77;53.13
73780;SHT30;62093;37.614;15.072;2023-07-31T13:47:59;27.78;53.12
73780;SHT30;62093;37.614;15.072;2023-07-31T13:50:30;27.80;53.09
73780;SHT30;62093;37.614;15.072;2023-07-31T13:53:02;27.81;53.11
73780;SHT30;62093;37.614;15.072;2023-07-31T13:55:39;27.81;53.17
73780;SHT30;62093;37.614;15.072;2023-07-31T13:58:08;27.80;53.12
73780;SHT30;62093;37.614;15.072;2023-07-31T14:00:38;27.78;53.14
73780;SHT30;62093;37.614;15.072;2023-07-31T14:03:14;27.81;53.09
73780;SHT30;62093;37.614;15.072;2023-07-31T14:05:41;27.78;53.08
73780;SHT30;62093;37.614;15.072;2023-07-31T14:08:11;27.80;53.12
73780;SHT30;62093;37.614;15.072;2023-07-31T14:10:40;27.82;53.11
73780;SHT30;62093;37.614;15.072;2023-07-31T14:13:09;27.82;53.08
73780;SHT30;62093;37.614;15.072;2023-07-31T14:15:37;27.80;53.07
73780;SHT30;62093;37.614;15.072;2023-07-31T14:18:06;27.82;53.08
73780;SHT30;62093;37.614;15.072;2023-07-31T14:20:41;27.80;53.07
73780;SHT30;62093;37.614;15.072;2023-07-31T14:23:15;27.82;53.11
73780;SHT30;62093;37.614;15.072;2023-07-31T14:25:51;27.81;53.11
73780;SHT30;62093;37.614;15.072;2023-07-31T14:28:19;27.84;53.07
73780;SHT30;62093;37.614;15.072;2023-07-31T14:30:55;27.81;53.11
73780;SHT30;62093;37.614;15.072;2023-07-31T14:33:21;27.80;53.01
73780;SHT30;62093;37.614;15.072;2023-07-31T14:35:54;27.82;53.02
73780;SHT30;62093;37.614;15.072;2023-07-31T14:38:23;27.81;53.03
73780;SHT30;62093;37.614;15.072;2023-07-31T14:41:03;27.81;53.05
73780;SHT30;62093;37.614;15.072;2023-07-31T14:43:30;27.82;53.01
73780;SHT30;62093;37.614;15.072;2023-07-31T14:45:59;27.84;53.08
73780;SHT30;62093;37.614;15.072;2023-07-31T14:48:27;27.81;53.03
73780;SHT30;62093;37.614;15.072;2023-07-31T14:51:00;27.82;53.00
73780;SHT30;62093;37.614;15.072;2023-07-31T14:53:33;27.84;53.06
73780;SHT30;62093;37.614;15.072;2023-07-31T14:56:04;27.80;53.04
73780;SHT30;62093;37.614;15.072;2023-07-31T14:58:30;27.84;53.03
73780;SHT30;62093;37.614;15.072;2023-07-31T15:00:56;27.82;53.07
73780;SHT30;62093;37.614;15.072;2023-07-31T15:03:24;27.81;53.07
73780;SHT30;62093;37.614;15.072;2023-07-31T15:05:53;27.82;53.05
73780;SHT30;62093;37.614;15.072;2023-07-31T15:08:18;27.81;53.06
73780;SHT30;62093;37.614;15.072;2023-07-31T15:10:52;27.82;53.06
73780;SHT30;62093;37.614;15.072;2023-07-31T15:13:23;27.81;53.02
73780;SHT30;62093;37.614;15.072;2023-07-31T15:15:54;27.84;53.03
73780;SHT30;62093;37.614;15.072;2023-07-31T15:18:24;27.82;53.02
73780;SHT30;62093;37.614;15.072;2023-07-31T15:21:01;27.80;53.05
73780;SHT30;62093;37.614;15.072;2023-07-31T15:23:31;27.78;53.01
73780;SHT30;62093;37.614;15.072;2023-07-31T15:25:59;27.82;53.03
73780;SHT30;62093;37.614;15.072;2023-07-31T15:28:27;27.82;53.03
73780;SHT30;62093;37.614;15.072;2023-07-31T15:30:59;27.88;52.97
73780;SHT30;62093;37.614;15.072;2023-07-31T15:33:33;27.97;52.85
73780;SHT30;62093;37.614;15.072;2023-07-31T15:36:03;28.04;52.65
73780;SHT30;62093;37.614;15.072;2023-07-31T15:38:40;28.05;52.44
73780;SHT30;62093;37.614;15.072;2023-07-31T15:41:08;28.13;52.32
73780;SHT30;62093;37.614;15.072;2023-07-31T15:43:45;28.18;52.23
73780;SHT30;62093;37.614;15.072;2023-07-31T15:46:11;28.18;52.22
73780;SHT30;62093;37.614;15.072;2023-07-31T15:48:37;28.15;52.23